This is the latest recevied weather packets stored in our database for station/object KA1JKB. If no packets are shown the sender has not sent any weather packets the latest 10 day(s).
| Time | Temp. | Humidity | Pressure | Rain* | Wind** | Luminosity | Snow |
|---|---|---|---|---|---|---|---|
| 1787693888 | 25° C | 65% | 1015.8 hPa | 0 mm | - | 91 W/m² | - |
| 1787693584 | 25.56° C | 64% | 1015.9 hPa | 0 mm | - | 183 W/m² | - |
| 1787693280 | 26.67° C | 60% | 1016 hPa | 0 mm | - | 430 W/m² | - |
| 1787692975 | 25° C | 66% | 1016 hPa | 0 mm | - | 464 W/m² | - |
| 1787692670 | 25.56° C | 62% | 1016.1 hPa | 0 mm | - | 484 W/m² | - |
| 1787692366 | 25.56° C | 65% | 1016.1 hPa | 0 mm | - | 428 W/m² | - |
| 1787692060 | 25.56° C | 64% | 1016.2 hPa | 0 mm | - | 415 W/m² | - |
| 1787691760 | 25.56° C | 62% | 1016.1 hPa | 0 mm | - | 427 W/m² | - |
| 1787691458 | 26.11° C | 61% | 1016.1 hPa | 0 mm | - | 413 W/m² | - |
| 1787691157 | 25.56° C | 62% | 1016.3 hPa | 0 mm | - | 485 W/m² | - |
| 1787690853 | 26.67° C | 62% | 1016.1 hPa | 0 mm | - | 521 W/m² | - |
| 1787690553 | 26.11° C | 65% | 1015.9 hPa | 0 mm | - | 525 W/m² | - |
| 1787690248 | 25.56° C | 67% | 1016.1 hPa | 0 mm | - | 562 W/m² | - |
| 1787689946 | 25.56° C | 65% | 1016 hPa | 0 mm | - | 539 W/m² | - |
| 1787689640 | 25.56° C | 60% | 1016.1 hPa | 0 mm | - | 323 W/m² | - |
| 1787689336 | 26.11° C | 61% | 1016.1 hPa | 0 mm | - | 581 W/m² | - |
| 1787689035 | 25.56° C | 64% | 1016.3 hPa | 0 mm | - | 272 W/m² | - |
| 1787688731 | 25° C | 64% | 1016.1 hPa | 0 mm | - | 621 W/m² | - |
| 1787688426 | 25° C | 64% | 1016.5 hPa | 0 mm | - | 208 W/m² | - |
| 1787688121 | 25° C | 65% | 1016.3 hPa | 0 mm | - | 264 W/m² | - |
| 1787687817 | 25° C | 63% | 1016.3 hPa | 0 mm | - | 242 W/m² | - |
| 1787687517 | 25° C | 65% | 1016.1 hPa | 0 mm | - | 525 W/m² | - |
| 1787687213 | 25.56° C | 66% | 1016.7 hPa | 0 mm | - | 459 W/m² | - |
| 1787686908 | 25.56° C | 62% | 1016.8 hPa | 0 mm | - | 746 W/m² | - |
| 1787686605 | 25.56° C | 63% | 1016.6 hPa | 0 mm | - | 712 W/m² | - |
* Rain latest hour (hover to see other rain measurements)
** Current wind speed in m/s (hover to see current wind gust speed)